sensor_id;sensor_type;location;lat;lon;timestamp;P1;durP1;ratioP1;P2;durP2;ratioP2
76597;SDS011;65486;53.144;18.134;2023-02-28T00:01:27;21.40;;;8.80;;
76597;SDS011;65486;53.144;18.134;2023-02-28T00:03:59;22.90;;;8.40;;
76597;SDS011;65486;53.144;18.134;2023-02-28T00:06:32;20.10;;;8.20;;
76597;SDS011;65486;53.144;18.134;2023-02-28T00:08:58;23.50;;;8.50;;
76597;SDS011;65486;53.144;18.134;2023-02-28T00:11:25;16.20;;;6.50;;
76597;SDS011;65486;53.144;18.134;2023-02-28T00:13:51;21.30;;;7.70;;
76597;SDS011;65486;53.144;18.134;2023-02-28T00:16:19;19.90;;;7.80;;
76597;SDS011;65486;53.144;18.134;2023-02-28T00:18:47;19.70;;;7.00;;
76597;SDS011;65486;53.144;18.134;2023-02-28T00:21:17;19.50;;;6.90;;
76597;SDS011;65486;53.144;18.134;2023-02-28T00:23:50;25.20;;;9.20;;
76597;SDS011;65486;53.144;18.134;2023-02-28T00:26:17;23.60;;;9.60;;
76597;SDS011;65486;53.144;18.134;2023-02-28T00:28:51;22.10;;;8.70;;
76597;SDS011;65486;53.144;18.134;2023-02-28T00:31:19;19.90;;;8.30;;
76597;SDS011;65486;53.144;18.134;2023-02-28T00:33:48;24.90;;;9.20;;
76597;SDS011;65486;53.144;18.134;2023-02-28T00:36:17;23.20;;;8.60;;
76597;SDS011;65486;53.144;18.134;2023-02-28T00:38:45;23.30;;;8.70;;
76597;SDS011;65486;53.144;18.134;2023-02-28T00:41:11;20.00;;;7.00;;
76597;SDS011;65486;53.144;18.134;2023-02-28T00:43:39;18.00;;;7.80;;
76597;SDS011;65486;53.144;18.134;2023-02-28T00:46:13;24.30;;;7.50;;
76597;SDS011;65486;53.144;18.134;2023-02-28T00:48:45;22.60;;;8.20;;
76597;SDS011;65486;53.144;18.134;2023-02-28T00:51:12;19.60;;;8.20;;
76597;SDS011;65486;53.144;18.134;2023-02-28T00:53:39;24.20;;;10.10;;
76597;SDS011;65486;53.144;18.134;2023-02-28T00:56:06;21.90;;;8.00;;
76597;SDS011;65486;53.144;18.134;2023-02-28T00:58:35;25.60;;;8.90;;
76597;SDS011;65486;53.144;18.134;2023-02-28T01:01:02;22.20;;;8.80;;
76597;SDS011;65486;53.144;18.134;2023-02-28T01:03:28;21.60;;;8.60;;
76597;SDS011;65486;53.144;18.134;2023-02-28T01:05:55;21.30;;;7.30;;
76597;SDS011;65486;53.144;18.134;2023-02-28T01:08:23;25.70;;;9.70;;
76597;SDS011;65486;53.144;18.134;2023-02-28T01:10:53;26.80;;;8.50;;
76597;SDS011;65486;53.144;18.134;2023-02-28T01:13:24;25.60;;;9.40;;
76597;SDS011;65486;53.144;18.134;2023-02-28T01:15:52;26.80;;;9.60;;
76597;SDS011;65486;53.144;18.134;2023-02-28T01:18:32;23.80;;;9.30;;
76597;SDS011;65486;53.144;18.134;2023-02-28T01:21:07;23.40;;;8.90;;
76597;SDS011;65486;53.144;18.134;2023-02-28T01:23:38;22.40;;;8.70;;
76597;SDS011;65486;53.144;18.134;2023-02-28T01:26:10;25.10;;;8.80;;
76597;SDS011;65486;53.144;18.134;2023-02-28T01:28:39;25.30;;;9.50;;
76597;SDS011;65486;53.144;18.134;2023-02-28T01:31:06;28.00;;;8.70;;
76597;SDS011;65486;53.144;18.134;2023-02-28T01:33:34;23.50;;;9.30;;
76597;SDS011;65486;53.144;18.134;2023-02-28T01:36:04;27.30;;;9.70;;
76597;SDS011;65486;53.144;18.134;2023-02-28T01:38:38;23.60;;;9.20;;
76597;SDS011;65486;53.144;18.134;2023-02-28T01:41:05;23.70;;;10.00;;
76597;SDS011;65486;53.144;18.134;2023-02-28T01:46:13;28.70;;;10.80;;
76597;SDS011;65486;53.144;18.134;2023-02-28T01:48:42;26.20;;;10.80;;
76597;SDS011;65486;53.144;18.134;2023-02-28T01:51:13;23.40;;;8.50;;
76597;SDS011;65486;53.144;18.134;2023-02-28T01:53:47;26.20;;;10.30;;
76597;SDS011;65486;53.144;18.134;2023-02-28T01:56:20;25.40;;;11.10;;
76597;SDS011;65486;53.144;18.134;2023-02-28T01:58:52;31.20;;;11.40;;
76597;SDS011;65486;53.144;18.134;2023-02-28T02:01:24;24.70;;;9.00;;
76597;SDS011;65486;53.144;18.134;2023-02-28T02:04:01;33.50;;;11.90;;
76597;SDS011;65486;53.144;18.134;2023-02-28T02:06:38;26.80;;;9.80;;
76597;SDS011;65486;53.144;18.134;2023-02-28T02:09:10;27.10;;;11.00;;
76597;SDS011;65486;53.144;18.134;2023-02-28T02:11:40;28.90;;;10.80;;
76597;SDS011;65486;53.144;18.134;2023-02-28T02:14:12;27.60;;;11.30;;
76597;SDS011;65486;53.144;18.134;2023-02-28T02:25:13;27.40;;;11.10;;
76597;SDS011;65486;53.144;18.134;2023-02-28T02:36:53;32.30;;;11.70;;
76597;SDS011;65486;53.144;18.134;2023-02-28T02:42:36;28.20;;;11.70;;
76597;SDS011;65486;53.144;18.134;2023-02-28T02:45:26;34.30;;;12.20;;
76597;SDS011;65486;53.144;18.134;2023-02-28T02:48:02;30.40;;;12.40;;
76597;SDS011;65486;53.144;18.134;2023-02-28T02:50:36;35.00;;;12.70;;
76597;SDS011;65486;53.144;18.134;2023-02-28T02:53:10;35.90;;;13.30;;
76597;SDS011;65486;53.144;18.134;2023-02-28T02:55:45;31.00;;;11.90;;
76597;SDS011;65486;53.144;18.134;2023-02-28T02:58:27;35.80;;;12.30;;
76597;SDS011;65486;53.144;18.134;2023-02-28T03:01:01;32.10;;;12.20;;
76597;SDS011;65486;53.144;18.134;2023-02-28T03:03:33;39.00;;;13.80;;
76597;SDS011;65486;53.144;18.134;2023-02-28T03:06:04;28.30;;;11.30;;
76597;SDS011;65486;53.144;18.134;2023-02-28T03:08:36;29.60;;;11.90;;
76597;SDS011;65486;53.144;18.134;2023-02-28T03:11:06;25.90;;;10.50;;
76597;SDS011;65486;53.144;18.134;2023-02-28T03:13:55;30.50;;;12.90;;
76597;SDS011;65486;53.144;18.134;2023-02-28T03:16:35;31.10;;;12.30;;
76597;SDS011;65486;53.144;18.134;2023-02-28T03:27:41;37.70;;;13.90;;
76597;SDS011;65486;53.144;18.134;2023-02-28T03:30:49;40.70;;;15.10;;
76597;SDS011;65486;53.144;18.134;2023-02-28T03:33:27;37.80;;;12.70;;
76597;SDS011;65486;53.144;18.134;2023-02-28T03:36:05;27.60;;;10.00;;
76597;SDS011;65486;53.144;18.134;2023-02-28T03:38:38;40.60;;;14.40;;
76597;SDS011;65486;53.144;18.134;2023-02-28T03:41:13;39.00;;;14.20;;
76597;SDS011;65486;53.144;18.134;2023-02-28T03:43:49;39.50;;;13.70;;
76597;SDS011;65486;53.144;18.134;2023-02-28T03:46:36;40.60;;;14.60;;
76597;SDS011;65486;53.144;18.134;2023-02-28T03:51:49;29.90;;;11.70;;
76597;SDS011;65486;53.144;18.134;2023-02-28T03:54:19;31.80;;;12.90;;
76597;SDS011;65486;53.144;18.134;2023-02-28T03:56:55;39.20;;;15.10;;
76597;SDS011;65486;53.144;18.134;2023-02-28T03:59:30;35.80;;;13.40;;
76597;SDS011;65486;53.144;18.134;2023-02-28T04:02:00;36.60;;;14.50;;
76597;SDS011;65486;53.144;18.134;2023-02-28T04:04:27;41.90;;;15.20;;
76597;SDS011;65486;53.144;18.134;2023-02-28T04:07:00;33.70;;;14.80;;
76597;SDS011;65486;53.144;18.134;2023-02-28T04:09:36;33.80;;;13.20;;
76597;SDS011;65486;53.144;18.134;2023-02-28T04:12:04;26.30;;;9.90;;
76597;SDS011;65486;53.144;18.134;2023-02-28T04:14:33;38.20;;;13.90;;
76597;SDS011;65486;53.144;18.134;2023-02-28T04:17:00;32.40;;;12.80;;
76597;SDS011;65486;53.144;18.134;2023-02-28T04:19:26;33.50;;;13.40;;
76597;SDS011;65486;53.144;18.134;2023-02-28T04:21:58;34.00;;;13.80;;
76597;SDS011;65486;53.144;18.134;2023-02-28T04:24:26;39.20;;;14.80;;
76597;SDS011;65486;53.144;18.134;2023-02-28T04:26:55;38.70;;;14.50;;
76597;SDS011;65486;53.144;18.134;2023-02-28T04:29:30;31.70;;;13.40;;
76597;SDS011;65486;53.144;18.134;2023-02-28T04:32:20;38.00;;;14.70;;
76597;SDS011;65486;53.144;18.134;2023-02-28T04:34:47;40.20;;;15.60;;
76597;SDS011;65486;53.144;18.134;2023-02-28T04:37:13;38.80;;;15.40;;
76597;SDS011;65486;53.144;18.134;2023-02-28T04:39:41;40.30;;;15.50;;
76597;SDS011;65486;53.144;18.134;2023-02-28T04:42:07;38.70;;;15.50;;
76597;SDS011;65486;53.144;18.134;2023-02-28T04:44:37;36.90;;;14.50;;
76597;SDS011;65486;53.144;18.134;2023-02-28T04:47:04;34.80;;;14.50;;
76597;SDS011;65486;53.144;18.134;2023-02-28T04:50:06;35.70;;;13.40;;
76597;SDS011;65486;53.144;18.134;2023-02-28T04:52:35;34.70;;;13.20;;
76597;SDS011;65486;53.144;18.134;2023-02-28T04:55:05;42.10;;;16.80;;
76597;SDS011;65486;53.144;18.134;2023-02-28T04:57:32;38.50;;;15.00;;
76597;SDS011;65486;53.144;18.134;2023-02-28T04:59:59;29.90;;;10.90;;
76597;SDS011;65486;53.144;18.134;2023-02-28T05:02:25;32.70;;;13.30;;
76597;SDS011;65486;53.144;18.134;2023-02-28T05:04:52;42.40;;;14.80;;
76597;SDS011;65486;53.144;18.134;2023-02-28T05:07:24;34.30;;;13.50;;
76597;SDS011;65486;53.144;18.134;2023-02-28T05:09:56;38.70;;;16.70;;
76597;SDS011;65486;53.144;18.134;2023-02-28T05:12:40;46.40;;;16.20;;
76597;SDS011;65486;53.144;18.134;2023-02-28T05:15:15;97.00;;;30.70;;
76597;SDS011;65486;53.144;18.134;2023-02-28T05:17:43;79.10;;;25.90;;
76597;SDS011;65486;53.144;18.134;2023-02-28T05:20:10;64.40;;;22.00;;
76597;SDS011;65486;53.144;18.134;2023-02-28T05:22:37;66.00;;;24.40;;
76597;SDS011;65486;53.144;18.134;2023-02-28T05:25:06;53.30;;;20.10;;
76597;SDS011;65486;53.144;18.134;2023-02-28T05:27:34;54.30;;;21.10;;
76597;SDS011;65486;53.144;18.134;2023-02-28T05:30:13;52.40;;;18.70;;
76597;SDS011;65486;53.144;18.134;2023-02-28T05:32:49;57.50;;;20.10;;
76597;SDS011;65486;53.144;18.134;2023-02-28T05:35:29;61.20;;;21.70;;
76597;SDS011;65486;53.144;18.134;2023-02-28T05:37:57;62.00;;;22.20;;
76597;SDS011;65486;53.144;18.134;2023-02-28T05:40:23;58.30;;;21.10;;
76597;SDS011;65486;53.144;18.134;2023-02-28T05:42:50;58.00;;;20.00;;
76597;SDS011;65486;53.144;18.134;2023-02-28T05:45:16;57.90;;;20.60;;
76597;SDS011;65486;53.144;18.134;2023-02-28T05:47:44;64.60;;;22.90;;
76597;SDS011;65486;53.144;18.134;2023-02-28T05:50:12;65.00;;;23.60;;
76597;SDS011;65486;53.144;18.134;2023-02-28T05:52:51;71.60;;;22.90;;
76597;SDS011;65486;53.144;18.134;2023-02-28T05:55:24;81.90;;;24.80;;
76597;SDS011;65486;53.144;18.134;2023-02-28T05:58:00;53.40;;;18.00;;
76597;SDS011;65486;53.144;18.134;2023-02-28T06:00:26;94.50;;;38.50;;
76597;SDS011;65486;53.144;18.134;2023-02-28T06:02:54;59.30;;;22.30;;
76597;SDS011;65486;53.144;18.134;2023-02-28T06:05:23;52.70;;;19.20;;
76597;SDS011;65486;53.144;18.134;2023-02-28T06:07:50;52.80;;;18.70;;
76597;SDS011;65486;53.144;18.134;2023-02-28T06:10:17;42.70;;;16.90;;
76597;SDS011;65486;53.144;18.134;2023-02-28T06:12:46;39.20;;;15.50;;
76597;SDS011;65486;53.144;18.134;2023-02-28T06:15:30;42.90;;;16.20;;
76597;SDS011;65486;53.144;18.134;2023-02-28T06:18:07;38.90;;;15.10;;
76597;SDS011;65486;53.144;18.134;2023-02-28T06:20:33;38.60;;;14.90;;
76597;SDS011;65486;53.144;18.134;2023-02-28T06:23:04;28.40;;;10.70;;
76597;SDS011;65486;53.144;18.134;2023-02-28T06:25:30;29.70;;;11.90;;
76597;SDS011;65486;53.144;18.134;2023-02-28T06:27:57;31.80;;;13.90;;
76597;SDS011;65486;53.144;18.134;2023-02-28T06:30:24;35.80;;;13.50;;
76597;SDS011;65486;53.144;18.134;2023-02-28T06:33:08;42.50;;;17.40;;
76597;SDS011;65486;53.144;18.134;2023-02-28T06:35:54;35.30;;;13.40;;
76597;SDS011;65486;53.144;18.134;2023-02-28T06:38:29;39.20;;;14.80;;
76597;SDS011;65486;53.144;18.134;2023-02-28T06:41:00;42.40;;;16.60;;
76597;SDS011;65486;53.144;18.134;2023-02-28T06:43:29;43.00;;;16.70;;
76597;SDS011;65486;53.144;18.134;2023-02-28T06:45:58;38.30;;;14.30;;
76597;SDS011;65486;53.144;18.134;2023-02-28T06:48:27;33.10;;;15.40;;
76597;SDS011;65486;53.144;18.134;2023-02-28T06:51:07;47.50;;;17.50;;
76597;SDS011;65486;53.144;18.134;2023-02-28T06:53:55;35.80;;;14.10;;
76597;SDS011;65486;53.144;18.134;2023-02-28T06:56:22;44.40;;;15.80;;
76597;SDS011;65486;53.144;18.134;2023-02-28T06:58:49;39.60;;;16.40;;
76597;SDS011;65486;53.144;18.134;2023-02-28T07:01:17;41.20;;;17.90;;
76597;SDS011;65486;53.144;18.134;2023-02-28T07:03:45;39.00;;;18.20;;
76597;SDS011;65486;53.144;18.134;2023-02-28T07:06:22;36.60;;;17.00;;
76597;SDS011;65486;53.144;18.134;2023-02-28T07:08:52;41.50;;;21.00;;
76597;SDS011;65486;53.144;18.134;2023-02-28T07:11:21;41.80;;;18.40;;
76597;SDS011;65486;53.144;18.134;2023-02-28T07:13:53;33.10;;;17.70;;
76597;SDS011;65486;53.144;18.134;2023-02-28T07:16:22;35.80;;;18.50;;
76597;SDS011;65486;53.144;18.134;2023-02-28T07:18:49;32.60;;;18.50;;
76597;SDS011;65486;53.144;18.134;2023-02-28T07:21:15;38.00;;;19.90;;
76597;SDS011;65486;53.144;18.134;2023-02-28T07:23:42;39.10;;;20.80;;
76597;SDS011;65486;53.144;18.134;2023-02-28T07:26:15;34.80;;;19.20;;
76597;SDS011;65486;53.144;18.134;2023-02-28T07:28:46;50.60;;;26.90;;
76597;SDS011;65486;53.144;18.134;2023-02-28T07:31:19;45.60;;;23.70;;
76597;SDS011;65486;53.144;18.134;2023-02-28T07:33:46;39.20;;;21.90;;
76597;SDS011;65486;53.144;18.134;2023-02-28T07:36:14;39.10;;;21.70;;
76597;SDS011;65486;53.144;18.134;2023-02-28T07:38:44;28.40;;;19.00;;
76597;SDS011;65486;53.144;18.134;2023-02-28T07:41:15;32.10;;;19.30;;
76597;SDS011;65486;53.144;18.134;2023-02-28T07:43:45;26.80;;;17.90;;
76597;SDS011;65486;53.144;18.134;2023-02-28T07:46:18;29.60;;;19.10;;
76597;SDS011;65486;53.144;18.134;2023-02-28T07:48:48;25.60;;;18.20;;
76597;SDS011;65486;53.144;18.134;2023-02-28T07:51:17;26.70;;;18.80;;
76597;SDS011;65486;53.144;18.134;2023-02-28T07:53:44;29.50;;;18.50;;
76597;SDS011;65486;53.144;18.134;2023-02-28T07:56:11;25.80;;;16.90;;
76597;SDS011;65486;53.144;18.134;2023-02-28T07:58:37;25.40;;;17.50;;
76597;SDS011;65486;53.144;18.134;2023-02-28T08:01:07;24.80;;;16.00;;
76597;SDS011;65486;53.144;18.134;2023-02-28T08:03:42;22.90;;;15.50;;
76597;SDS011;65486;53.144;18.134;2023-02-28T08:06:27;24.70;;;17.60;;
76597;SDS011;65486;53.144;18.134;2023-02-28T08:09:04;26.40;;;19.40;;
76597;SDS011;65486;53.144;18.134;2023-02-28T08:11:31;26.60;;;18.30;;
76597;SDS011;65486;53.144;18.134;2023-02-28T08:13:58;24.40;;;18.00;;
76597;SDS011;65486;53.144;18.134;2023-02-28T08:16:24;23.40;;;17.70;;
76597;SDS011;65486;53.144;18.134;2023-02-28T08:18:52;23.20;;;17.50;;
76597;SDS011;65486;53.144;18.134;2023-02-28T08:21:34;24.20;;;17.70;;
76597;SDS011;65486;53.144;18.134;2023-02-28T08:24:06;25.80;;;17.70;;
76597;SDS011;65486;53.144;18.134;2023-02-28T08:26:41;26.20;;;18.60;;
76597;SDS011;65486;53.144;18.134;2023-02-28T08:29:10;24.50;;;18.50;;
76597;SDS011;65486;53.144;18.134;2023-02-28T08:31:37;22.40;;;15.60;;
76597;SDS011;65486;53.144;18.134;2023-02-28T08:34:10;22.70;;;17.00;;
76597;SDS011;65486;53.144;18.134;2023-02-28T08:36:41;24.70;;;17.70;;
76597;SDS011;65486;53.144;18.134;2023-02-28T08:39:11;25.70;;;18.50;;
76597;SDS011;65486;53.144;18.134;2023-02-28T08:41:42;18.90;;;14.00;;
76597;SDS011;65486;53.144;18.134;2023-02-28T08:44:13;23.10;;;17.10;;
76597;SDS011;65486;53.144;18.134;2023-02-28T08:46:44;21.00;;;15.90;;
76597;SDS011;65486;53.144;18.134;2023-02-28T08:49:10;24.80;;;16.50;;
76597;SDS011;65486;53.144;18.134;2023-02-28T08:51:48;21.60;;;15.50;;
76597;SDS011;65486;53.144;18.134;2023-02-28T08:54:16;26.70;;;17.80;;
76597;SDS011;65486;53.144;18.134;2023-02-28T08:56:45;21.70;;;16.00;;
76597;SDS011;65486;53.144;18.134;2023-02-28T08:59:15;25.40;;;17.10;;
76597;SDS011;65486;53.144;18.134;2023-02-28T09:01:46;23.50;;;15.40;;
76597;SDS011;65486;53.144;18.134;2023-02-28T09:04:20;20.20;;;14.50;;
76597;SDS011;65486;53.144;18.134;2023-02-28T09:07:06;17.70;;;13.10;;
76597;SDS011;65486;53.144;18.134;2023-02-28T09:09:33;16.90;;;12.60;;
76597;SDS011;65486;53.144;18.134;2023-02-28T09:12:00;14.00;;;10.80;;
76597;SDS011;65486;53.144;18.134;2023-02-28T09:14:27;15.00;;;11.40;;
76597;SDS011;65486;53.144;18.134;2023-02-28T09:16:54;17.20;;;11.00;;
76597;SDS011;65486;53.144;18.134;2023-02-28T09:19:21;17.30;;;12.50;;
76597;SDS011;65486;53.144;18.134;2023-02-28T09:21:54;14.30;;;10.70;;
76597;SDS011;65486;53.144;18.134;2023-02-28T09:24:29;15.70;;;11.90;;
76597;SDS011;65486;53.144;18.134;2023-02-28T09:26:58;21.40;;;13.40;;
76597;SDS011;65486;53.144;18.134;2023-02-28T09:29:25;18.00;;;13.10;;
76597;SDS011;65486;53.144;18.134;2023-02-28T09:31:53;24.90;;;17.20;;
76597;SDS011;65486;53.144;18.134;2023-02-28T09:34:19;24.40;;;17.70;;
76597;SDS011;65486;53.144;18.134;2023-02-28T09:36:46;23.40;;;15.20;;
76597;SDS011;65486;53.144;18.134;2023-02-28T09:39:15;23.50;;;15.70;;
76597;SDS011;65486;53.144;18.134;2023-02-28T09:41:45;23.90;;;14.90;;
76597;SDS011;65486;53.144;18.134;2023-02-28T09:44:18;21.60;;;15.60;;
76597;SDS011;65486;53.144;18.134;2023-02-28T09:46:54;18.00;;;13.60;;
76597;SDS011;65486;53.144;18.134;2023-02-28T09:49:38;21.20;;;15.20;;
76597;SDS011;65486;53.144;18.134;2023-02-28T09:52:13;18.40;;;12.30;;
76597;SDS011;65486;53.144;18.134;2023-02-28T09:54:43;18.10;;;12.30;;
76597;SDS011;65486;53.144;18.134;2023-02-28T10:08:58;16.30;;;10.60;;
76597;SDS011;65486;53.144;18.134;2023-02-28T10:11:38;16.60;;;11.60;;
76597;SDS011;65486;53.144;18.134;2023-02-28T10:14:19;14.80;;;10.90;;
76597;SDS011;65486;53.144;18.134;2023-02-28T10:17:17;16.50;;;10.70;;
76597;SDS011;65486;53.144;18.134;2023-02-28T10:25:21;13.90;;;7.80;;
76597;SDS011;65486;53.144;18.134;2023-02-28T10:27:49;10.70;;;7.30;;
76597;SDS011;65486;53.144;18.134;2023-02-28T10:30:21;12.30;;;6.20;;
76597;SDS011;65486;53.144;18.134;2023-02-28T10:32:49;12.30;;;6.80;;
76597;SDS011;65486;53.144;18.134;2023-02-28T10:35:29;11.60;;;6.90;;
76597;SDS011;65486;53.144;18.134;2023-02-28T10:38:21;11.50;;;7.40;;
76597;SDS011;65486;53.144;18.134;2023-02-28T10:40:50;11.50;;;7.40;;
76597;SDS011;65486;53.144;18.134;2023-02-28T10:51:12;13.80;;;8.00;;
76597;SDS011;65486;53.144;18.134;2023-02-28T10:54:22;15.10;;;7.80;;
76597;SDS011;65486;53.144;18.134;2023-02-28T10:57:36;13.00;;;8.10;;
76597;SDS011;65486;53.144;18.134;2023-02-28T11:00:12;13.20;;;6.90;;
76597;SDS011;65486;53.144;18.134;2023-02-28T11:02:48;13.80;;;8.00;;
76597;SDS011;65486;53.144;18.134;2023-02-28T11:07:57;14.80;;;8.60;;
76597;SDS011;65486;53.144;18.134;2023-02-28T11:10:53;11.70;;;6.60;;
76597;SDS011;65486;53.144;18.134;2023-02-28T11:13:32;16.20;;;7.70;;
76597;SDS011;65486;53.144;18.134;2023-02-28T11:16:09;12.90;;;7.40;;
76597;SDS011;65486;53.144;18.134;2023-02-28T11:18:49;13.00;;;6.60;;
76597;SDS011;65486;53.144;18.134;2023-02-28T11:21:23;9.50;;;4.70;;
76597;SDS011;65486;53.144;18.134;2023-02-28T11:24:14;12.80;;;5.50;;
76597;SDS011;65486;53.144;18.134;2023-02-28T11:26:50;10.90;;;5.90;;
76597;SDS011;65486;53.144;18.134;2023-02-28T11:34:31;9.20;;;4.60;;
76597;SDS011;65486;53.144;18.134;2023-02-28T11:37:01;9.40;;;3.90;;
76597;SDS011;65486;53.144;18.134;2023-02-28T11:57:47;12.80;;;5.80;;
76597;SDS011;65486;53.144;18.134;2023-02-28T12:00:39;9.10;;;4.60;;
76597;SDS011;65486;53.144;18.134;2023-02-28T12:06:38;16.10;;;5.90;;
76597;SDS011;65486;53.144;18.134;2023-02-28T12:21:13;13.90;;;6.70;;
76597;SDS011;65486;53.144;18.134;2023-02-28T12:26:40;15.00;;;6.70;;
76597;SDS011;65486;53.144;18.134;2023-02-28T12:31:58;10.10;;;5.00;;
76597;SDS011;65486;53.144;18.134;2023-02-28T12:34:55;11.10;;;5.10;;
76597;SDS011;65486;53.144;18.134;2023-02-28T12:41:00;7.20;;;3.60;;
76597;SDS011;65486;53.144;18.134;2023-02-28T12:43:53;7.50;;;3.30;;
76597;SDS011;65486;53.144;18.134;2023-02-28T12:46:32;8.40;;;2.90;;
76597;SDS011;65486;53.144;18.134;2023-02-28T12:49:16;8.10;;;2.70;;
76597;SDS011;65486;53.144;18.134;2023-02-28T12:51:48;19.80;;;7.40;;
76597;SDS011;65486;53.144;18.134;2023-02-28T12:54:39;11.30;;;4.30;;
76597;SDS011;65486;53.144;18.134;2023-02-28T13:00:47;8.20;;;3.20;;
76597;SDS011;65486;53.144;18.134;2023-02-28T13:09:56;5.90;;;3.00;;
76597;SDS011;65486;53.144;18.134;2023-02-28T13:12:25;9.60;;;1.90;;
76597;SDS011;65486;53.144;18.134;2023-02-28T13:17:46;7.40;;;2.70;;
76597;SDS011;65486;53.144;18.134;2023-02-28T13:20:26;6.40;;;2.30;;
76597;SDS011;65486;53.144;18.134;2023-02-28T13:23:03;7.10;;;3.00;;
76597;SDS011;65486;53.144;18.134;2023-02-28T13:28:11;7.20;;;2.90;;
76597;SDS011;65486;53.144;18.134;2023-02-28T13:35:49;7.00;;;2.60;;
76597;SDS011;65486;53.144;18.134;2023-02-28T13:48:15;7.00;;;2.40;;
76597;SDS011;65486;53.144;18.134;2023-02-28T13:50:44;5.80;;;2.40;;
76597;SDS011;65486;53.144;18.134;2023-02-28T13:56:31;4.50;;;1.80;;
76597;SDS011;65486;53.144;18.134;2023-02-28T13:59:32;6.30;;;2.70;;
76597;SDS011;65486;53.144;18.134;2023-02-28T14:02:42;4.50;;;1.40;;
76597;SDS011;65486;53.144;18.134;2023-02-28T14:05:27;5.50;;;2.20;;
76597;SDS011;65486;53.144;18.134;2023-02-28T14:11:32;8.10;;;3.10;;
76597;SDS011;65486;53.144;18.134;2023-02-28T14:13:59;6.50;;;2.20;;
76597;SDS011;65486;53.144;18.134;2023-02-28T14:16:48;6.90;;;2.60;;
76597;SDS011;65486;53.144;18.134;2023-02-28T14:19:21;6.50;;;2.60;;
76597;SDS011;65486;53.144;18.134;2023-02-28T14:22:19;7.40;;;2.50;;
76597;SDS011;65486;53.144;18.134;2023-02-28T14:25:44;8.00;;;2.60;;
76597;SDS011;65486;53.144;18.134;2023-02-28T14:28:59;3.60;;;1.70;;
76597;SDS011;65486;53.144;18.134;2023-02-28T14:34:37;6.90;;;2.60;;
76597;SDS011;65486;53.144;18.134;2023-02-28T14:37:09;4.60;;;1.60;;
76597;SDS011;65486;53.144;18.134;2023-02-28T14:39:58;5.20;;;1.90;;
76597;SDS011;65486;53.144;18.134;2023-02-28T14:42:36;5.80;;;1.80;;
76597;SDS011;65486;53.144;18.134;2023-02-28T14:45:33;3.60;;;1.70;;
76597;SDS011;65486;53.144;18.134;2023-02-28T14:48:19;6.20;;;2.20;;
76597;SDS011;65486;53.144;18.134;2023-02-28T14:51:04;6.50;;;2.30;;
76597;SDS011;65486;53.144;18.134;2023-02-28T14:53:41;6.60;;;2.60;;
76597;SDS011;65486;53.144;18.134;2023-02-28T14:56:18;7.50;;;2.60;;
76597;SDS011;65486;53.144;18.134;2023-02-28T14:58:53;7.80;;;2.70;;
76597;SDS011;65486;53.144;18.134;2023-02-28T15:01:22;7.20;;;2.80;;
76597;SDS011;65486;53.144;18.134;2023-02-28T15:03:56;5.80;;;2.10;;
76597;SDS011;65486;53.144;18.134;2023-02-28T15:06:29;8.40;;;2.90;;
76597;SDS011;65486;53.144;18.134;2023-02-28T15:09:15;5.80;;;2.20;;
76597;SDS011;65486;53.144;18.134;2023-02-28T15:11:45;5.20;;;2.30;;
76597;SDS011;65486;53.144;18.134;2023-02-28T15:14:27;9.50;;;2.70;;
76597;SDS011;65486;53.144;18.134;2023-02-28T15:17:07;7.50;;;2.90;;
76597;SDS011;65486;53.144;18.134;2023-02-28T15:19:44;7.00;;;2.90;;
76597;SDS011;65486;53.144;18.134;2023-02-28T15:22:16;8.00;;;3.00;;
76597;SDS011;65486;53.144;18.134;2023-02-28T15:24:48;6.60;;;2.70;;
76597;SDS011;65486;53.144;18.134;2023-02-28T15:27:23;8.40;;;3.10;;
76597;SDS011;65486;53.144;18.134;2023-02-28T15:30:00;6.40;;;2.90;;
76597;SDS011;65486;53.144;18.134;2023-02-28T15:36:11;9.90;;;2.50;;
76597;SDS011;65486;53.144;18.134;2023-02-28T15:39:18;6.00;;;2.70;;
76597;SDS011;65486;53.144;18.134;2023-02-28T15:41:49;8.10;;;3.00;;
76597;SDS011;65486;53.144;18.134;2023-02-28T15:44:27;5.60;;;2.40;;
76597;SDS011;65486;53.144;18.134;2023-02-28T15:49:49;5.60;;;2.60;;
76597;SDS011;65486;53.144;18.134;2023-02-28T15:55:18;7.00;;;3.00;;
76597;SDS011;65486;53.144;18.134;2023-02-28T15:58:12;7.50;;;3.30;;
76597;SDS011;65486;53.144;18.134;2023-02-28T16:00:59;7.40;;;3.00;;
76597;SDS011;65486;53.144;18.134;2023-02-28T16:03:39;9.60;;;3.40;;
76597;SDS011;65486;53.144;18.134;2023-02-28T16:09:02;7.20;;;2.40;;
76597;SDS011;65486;53.144;18.134;2023-02-28T16:11:30;7.30;;;3.00;;
76597;SDS011;65486;53.144;18.134;2023-02-28T16:14:02;7.10;;;2.30;;
76597;SDS011;65486;53.144;18.134;2023-02-28T16:16:30;8.30;;;3.00;;
76597;SDS011;65486;53.144;18.134;2023-02-28T16:19:26;7.60;;;2.70;;
76597;SDS011;65486;53.144;18.134;2023-02-28T16:21:54;8.80;;;3.30;;
76597;SDS011;65486;53.144;18.134;2023-02-28T16:24:22;8.70;;;2.90;;
76597;SDS011;65486;53.144;18.134;2023-02-28T16:26:49;8.30;;;3.10;;
76597;SDS011;65486;53.144;18.134;2023-02-28T16:29:20;8.30;;;3.00;;
76597;SDS011;65486;53.144;18.134;2023-02-28T16:34:59;9.50;;;3.30;;
76597;SDS011;65486;53.144;18.134;2023-02-28T16:38:32;6.70;;;2.70;;
76597;SDS011;65486;53.144;18.134;2023-02-28T16:41:16;9.20;;;3.50;;
76597;SDS011;65486;53.144;18.134;2023-02-28T16:43:50;7.40;;;2.60;;
76597;SDS011;65486;53.144;18.134;2023-02-28T16:46:19;7.50;;;2.60;;
76597;SDS011;65486;53.144;18.134;2023-02-28T16:48:46;8.20;;;3.10;;
76597;SDS011;65486;53.144;18.134;2023-02-28T16:51:17;11.60;;;3.50;;
76597;SDS011;65486;53.144;18.134;2023-02-28T16:57:33;7.70;;;3.00;;
76597;SDS011;65486;53.144;18.134;2023-02-28T17:00:01;9.80;;;3.60;;
76597;SDS011;65486;53.144;18.134;2023-02-28T17:02:31;11.60;;;4.00;;
76597;SDS011;65486;53.144;18.134;2023-02-28T17:04:58;12.10;;;4.20;;
76597;SDS011;65486;53.144;18.134;2023-02-28T17:07:24;8.30;;;2.90;;
76597;SDS011;65486;53.144;18.134;2023-02-28T17:12:55;10.10;;;3.60;;
76597;SDS011;65486;53.144;18.134;2023-02-28T17:15:24;12.40;;;3.80;;
76597;SDS011;65486;53.144;18.134;2023-02-28T17:17:56;10.60;;;4.30;;
76597;SDS011;65486;53.144;18.134;2023-02-28T17:20:27;13.90;;;4.80;;
76597;SDS011;65486;53.144;18.134;2023-02-28T17:22:57;14.10;;;4.40;;
76597;SDS011;65486;53.144;18.134;2023-02-28T17:25:24;15.00;;;5.50;;
76597;SDS011;65486;53.144;18.134;2023-02-28T17:27:52;12.30;;;4.40;;
76597;SDS011;65486;53.144;18.134;2023-02-28T17:30:20;10.60;;;3.30;;
76597;SDS011;65486;53.144;18.134;2023-02-28T17:32:49;8.80;;;3.10;;
76597;SDS011;65486;53.144;18.134;2023-02-28T17:35:40;11.50;;;3.30;;
76597;SDS011;65486;53.144;18.134;2023-02-28T17:41:24;14.70;;;3.30;;
76597;SDS011;65486;53.144;18.134;2023-02-28T17:43:52;11.80;;;4.40;;
76597;SDS011;65486;53.144;18.134;2023-02-28T17:46:19;9.60;;;3.70;;
76597;SDS011;65486;53.144;18.134;2023-02-28T17:48:48;8.30;;;3.40;;
76597;SDS011;65486;53.144;18.134;2023-02-28T17:51:17;8.30;;;3.20;;
76597;SDS011;65486;53.144;18.134;2023-02-28T17:53:53;9.40;;;3.80;;